sensor_id;sensor_type;location;lat;lon;timestamp;temperature;humidity
18894;DHT22;9579;49.488;8.226;2024-02-15T00:01:57;11.90;99.90
18894;DHT22;9579;49.488;8.226;2024-02-15T00:04:47;12.60;99.90
18894;DHT22;9579;49.488;8.226;2024-02-15T00:07:40;11.70;99.90
18894;DHT22;9579;49.488;8.226;2024-02-15T00:10:31;12.60;99.90
18894;DHT22;9579;49.488;8.226;2024-02-15T00:13:21;12.00;99.90
18894;DHT22;9579;49.488;8.226;2024-02-15T00:16:14;12.60;99.90
18894;DHT22;9579;49.488;8.226;2024-02-15T00:19:02;12.50;99.90
18894;DHT22;9579;49.488;8.226;2024-02-15T00:21:57;11.90;99.90
18894;DHT22;9579;49.488;8.226;2024-02-15T00:24:52;11.90;99.90
18894;DHT22;9579;49.488;8.226;2024-02-15T00:27:45;12.30;99.90
18894;DHT22;9579;49.488;8.226;2024-02-15T00:30:35;11.60;99.90
18894;DHT22;9579;49.488;8.226;2024-02-15T00:33:26;12.10;99.90
18894;DHT22;9579;49.488;8.226;2024-02-15T00:36:19;11.80;99.90
18894;DHT22;9579;49.488;8.226;2024-02-15T00:39:14;12.30;99.90
18894;DHT22;9579;49.488;8.226;2024-02-15T00:42:08;12.90;99.90
18894;DHT22;9579;49.488;8.226;2024-02-15T00:44:57;13.50;99.90
18894;DHT22;9579;49.488;8.226;2024-02-15T00:47:46;11.30;99.90
18894;DHT22;9579;49.488;8.226;2024-02-15T00:50:38;13.00;99.90
18894;DHT22;9579;49.488;8.226;2024-02-15T00:53:28;12.00;99.90
18894;DHT22;9579;49.488;8.226;2024-02-15T00:56:16;11.50;99.90
18894;DHT22;9579;49.488;8.226;2024-02-15T00:59:10;11.90;99.90
18894;DHT22;9579;49.488;8.226;2024-02-15T01:02:02;11.70;99.90
18894;DHT22;9579;49.488;8.226;2024-02-15T01:04:51;12.40;99.90
18894;DHT22;9579;49.488;8.226;2024-02-15T01:07:39;12.40;99.90
18894;DHT22;9579;49.488;8.226;2024-02-15T01:10:29;13.30;99.90
18894;DHT22;9579;49.488;8.226;2024-02-15T01:13:19;12.30;99.90
18894;DHT22;9579;49.488;8.226;2024-02-15T01:16:10;11.50;99.90
18894;DHT22;9579;49.488;8.226;2024-02-15T01:19:02;11.10;99.90
18894;DHT22;9579;49.488;8.226;2024-02-15T01:21:51;10.90;99.90
18894;DHT22;9579;49.488;8.226;2024-02-15T01:24:41;12.40;99.90
18894;DHT22;9579;49.488;8.226;2024-02-15T01:27:30;12.50;99.90
18894;DHT22;9579;49.488;8.226;2024-02-15T01:30:22;11.80;99.90
18894;DHT22;9579;49.488;8.226;2024-02-15T01:33:18;12.70;99.90
18894;DHT22;9579;49.488;8.226;2024-02-15T01:36:13;11.60;99.90
18894;DHT22;9579;49.488;8.226;2024-02-15T01:39:06;11.50;99.90
18894;DHT22;9579;49.488;8.226;2024-02-15T01:41:55;12.00;99.90
18894;DHT22;9579;49.488;8.226;2024-02-15T01:44:54;12.90;99.90
18894;DHT22;9579;49.488;8.226;2024-02-15T01:47:43;12.00;99.90
18894;DHT22;9579;49.488;8.226;2024-02-15T01:50:38;12.50;99.90
18894;DHT22;9579;49.488;8.226;2024-02-15T01:53:29;12.00;99.90
18894;DHT22;9579;49.488;8.226;2024-02-15T01:56:23;11.50;99.90
18894;DHT22;9579;49.488;8.226;2024-02-15T01:59:16;11.80;99.90
18894;DHT22;9579;49.488;8.226;2024-02-15T02:02:10;11.40;99.90
18894;DHT22;9579;49.488;8.226;2024-02-15T02:05:09;10.80;99.90
18894;DHT22;9579;49.488;8.226;2024-02-15T02:08:03;10.70;99.90
18894;DHT22;9579;49.488;8.226;2024-02-15T02:10:55;12.40;99.90
18894;DHT22;9579;49.488;8.226;2024-02-15T02:13:45;11.10;99.90
18894;DHT22;9579;49.488;8.226;2024-02-15T02:16:34;12.50;99.90
18894;DHT22;9579;49.488;8.226;2024-02-15T02:19:25;12.30;99.90
18894;DHT22;9579;49.488;8.226;2024-02-15T02:22:16;11.30;99.90
18894;DHT22;9579;49.488;8.226;2024-02-15T02:25:08;12.00;99.90
18894;DHT22;9579;49.488;8.226;2024-02-15T02:28:02;13.40;99.90
18894;DHT22;9579;49.488;8.226;2024-02-15T02:30:58;10.80;99.90
18894;DHT22;9579;49.488;8.226;2024-02-15T02:33:54;12.40;99.90
18894;DHT22;9579;49.488;8.226;2024-02-15T02:36:46;12.90;99.90
18894;DHT22;9579;49.488;8.226;2024-02-15T02:39:42;13.10;99.90
18894;DHT22;9579;49.488;8.226;2024-02-15T02:42:50;12.20;99.90
18894;DHT22;9579;49.488;8.226;2024-02-15T02:45:42;11.70;99.90
18894;DHT22;9579;49.488;8.226;2024-02-15T02:48:35;11.70;99.90
18894;DHT22;9579;49.488;8.226;2024-02-15T02:51:25;11.90;99.90
18894;DHT22;9579;49.488;8.226;2024-02-15T02:54:17;11.30;99.90
18894;DHT22;9579;49.488;8.226;2024-02-15T02:57:08;12.30;99.90
18894;DHT22;9579;49.488;8.226;2024-02-15T03:00:07;12.50;99.90
18894;DHT22;9579;49.488;8.226;2024-02-15T03:03:00;12.40;99.90
18894;DHT22;9579;49.488;8.226;2024-02-15T03:05:54;12.30;99.90
18894;DHT22;9579;49.488;8.226;2024-02-15T03:08:49;11.90;99.90
18894;DHT22;9579;49.488;8.226;2024-02-15T03:11:44;13.10;99.90
18894;DHT22;9579;49.488;8.226;2024-02-15T03:14:38;11.20;99.90
18894;DHT22;9579;49.488;8.226;2024-02-15T03:17:43;12.00;99.90
18894;DHT22;9579;49.488;8.226;2024-02-15T03:20:37;11.30;99.90
18894;DHT22;9579;49.488;8.226;2024-02-15T03:23:29;11.90;99.90
18894;DHT22;9579;49.488;8.226;2024-02-15T03:26:29;11.00;99.90
18894;DHT22;9579;49.488;8.226;2024-02-15T03:29:24;14.20;99.90
18894;DHT22;9579;49.488;8.226;2024-02-15T03:32:30;12.90;99.90
18894;DHT22;9579;49.488;8.226;2024-02-15T03:35:27;11.50;99.90
18894;DHT22;9579;49.488;8.226;2024-02-15T03:38:20;12.30;99.90
18894;DHT22;9579;49.488;8.226;2024-02-15T03:49:06;12.70;99.90
18894;DHT22;9579;49.488;8.226;2024-02-15T04:20:33;12.40;99.90
18894;DHT22;9579;49.488;8.226;2024-02-15T04:23:21;11.30;99.90
18894;DHT22;9579;49.488;8.226;2024-02-15T04:26:10;11.20;99.90
18894;DHT22;9579;49.488;8.226;2024-02-15T04:29:00;11.70;99.90
18894;DHT22;9579;49.488;8.226;2024-02-15T04:31:50;12.10;99.90
18894;DHT22;9579;49.488;8.226;2024-02-15T04:34:40;12.40;99.90
18894;DHT22;9579;49.488;8.226;2024-02-15T04:37:30;11.30;99.90
18894;DHT22;9579;49.488;8.226;2024-02-15T04:40:20;12.40;99.90
18894;DHT22;9579;49.488;8.226;2024-02-15T04:43:08;12.60;99.90
18894;DHT22;9579;49.488;8.226;2024-02-15T04:45:58;13.20;99.90
18894;DHT22;9579;49.488;8.226;2024-02-15T04:48:48;11.80;99.90
18894;DHT22;9579;49.488;8.226;2024-02-15T04:51:36;11.90;99.90
18894;DHT22;9579;49.488;8.226;2024-02-15T04:54:26;11.70;99.90
18894;DHT22;9579;49.488;8.226;2024-02-15T04:57:15;11.00;99.90
18894;DHT22;9579;49.488;8.226;2024-02-15T05:00:07;12.00;99.90
18894;DHT22;9579;49.488;8.226;2024-02-15T05:03:01;12.00;99.90
18894;DHT22;9579;49.488;8.226;2024-02-15T05:05:53;11.40;99.90
18894;DHT22;9579;49.488;8.226;2024-02-15T05:08:43;13.90;99.90
18894;DHT22;9579;49.488;8.226;2024-02-15T05:17:00;12.70;99.90
18894;DHT22;9579;49.488;8.226;2024-02-15T05:19:50;13.30;99.90
18894;DHT22;9579;49.488;8.226;2024-02-15T05:22:47;12.00;99.90
18894;DHT22;9579;49.488;8.226;2024-02-15T05:25:37;11.20;99.90
18894;DHT22;9579;49.488;8.226;2024-02-15T05:28:31;13.00;99.90
18894;DHT22;9579;49.488;8.226;2024-02-15T05:34:12;12.80;99.90
18894;DHT22;9579;49.488;8.226;2024-02-15T05:37:01;12.60;99.90
18894;DHT22;9579;49.488;8.226;2024-02-15T05:39:51;11.00;99.90
18894;DHT22;9579;49.488;8.226;2024-02-15T05:42:45;12.30;99.90
18894;DHT22;9579;49.488;8.226;2024-02-15T05:45:42;12.00;99.90
18894;DHT22;9579;49.488;8.226;2024-02-15T05:48:32;12.40;99.90
18894;DHT22;9579;49.488;8.226;2024-02-15T05:51:25;11.50;99.90
18894;DHT22;9579;49.488;8.226;2024-02-15T05:54:17;11.70;99.90
18894;DHT22;9579;49.488;8.226;2024-02-15T06:23:07;12.50;99.90
18894;DHT22;9579;49.488;8.226;2024-02-15T06:25:57;12.40;99.90
18894;DHT22;9579;49.488;8.226;2024-02-15T06:28:47;10.80;99.90
18894;DHT22;9579;49.488;8.226;2024-02-15T06:31:51;12.10;99.90
18894;DHT22;9579;49.488;8.226;2024-02-15T06:34:57;12.30;99.90
18894;DHT22;9579;49.488;8.226;2024-02-15T06:38:02;11.00;99.90
18894;DHT22;9579;49.488;8.226;2024-02-15T06:41:10;11.20;99.90
18894;DHT22;9579;49.488;8.226;2024-02-15T06:49:04;12.30;99.90
18894;DHT22;9579;49.488;8.226;2024-02-15T06:51:53;11.70;99.90
18894;DHT22;9579;49.488;8.226;2024-02-15T06:54:48;10.80;99.90
18894;DHT22;9579;49.488;8.226;2024-02-15T06:57:40;10.50;99.90
18894;DHT22;9579;49.488;8.226;2024-02-15T07:00:32;12.20;99.90
18894;DHT22;9579;49.488;8.226;2024-02-15T07:03:20;11.20;99.90
18894;DHT22;9579;49.488;8.226;2024-02-15T07:06:11;13.50;99.90
18894;DHT22;9579;49.488;8.226;2024-02-15T07:09:03;12.10;99.90
18894;DHT22;9579;49.488;8.226;2024-02-15T07:11:52;11.10;99.90
18894;DHT22;9579;49.488;8.226;2024-02-15T07:14:43;12.70;99.90
18894;DHT22;9579;49.488;8.226;2024-02-15T07:17:36;13.20;99.90
18894;DHT22;9579;49.488;8.226;2024-02-15T07:20:24;12.00;99.90
18894;DHT22;9579;49.488;8.226;2024-02-15T07:23:13;13.10;99.90
18894;DHT22;9579;49.488;8.226;2024-02-15T07:26:01;12.10;99.90
18894;DHT22;9579;49.488;8.226;2024-02-15T07:28:50;11.40;99.90
18894;DHT22;9579;49.488;8.226;2024-02-15T07:31:41;12.90;99.90
18894;DHT22;9579;49.488;8.226;2024-02-15T07:34:30;12.10;99.90
18894;DHT22;9579;49.488;8.226;2024-02-15T07:37:20;11.30;99.90
18894;DHT22;9579;49.488;8.226;2024-02-15T07:40:12;11.60;99.90
18894;DHT22;9579;49.488;8.226;2024-02-15T07:43:02;11.00;99.90
18894;DHT22;9579;49.488;8.226;2024-02-15T07:45:52;12.40;99.90
18894;DHT22;9579;49.488;8.226;2024-02-15T07:48:41;12.20;99.90
18894;DHT22;9579;49.488;8.226;2024-02-15T07:51:31;11.90;99.90
18894;DHT22;9579;49.488;8.226;2024-02-15T07:54:19;11.70;99.90
18894;DHT22;9579;49.488;8.226;2024-02-15T07:57:09;13.20;99.90
18894;DHT22;9579;49.488;8.226;2024-02-15T08:00:00;11.90;99.90
18894;DHT22;9579;49.488;8.226;2024-02-15T08:02:51;11.40;99.90
18894;DHT22;9579;49.488;8.226;2024-02-15T08:05:46;11.80;99.90
18894;DHT22;9579;49.488;8.226;2024-02-15T08:08:36;12.40;99.90
18894;DHT22;9579;49.488;8.226;2024-02-15T08:11:27;11.00;99.90
18894;DHT22;9579;49.488;8.226;2024-02-15T08:14:15;12.30;99.90
18894;DHT22;9579;49.488;8.226;2024-02-15T08:17:03;13.70;99.90
18894;DHT22;9579;49.488;8.226;2024-02-15T08:19:54;11.50;99.90
18894;DHT22;9579;49.488;8.226;2024-02-15T08:23:00;12.20;99.90
18894;DHT22;9579;49.488;8.226;2024-02-15T08:30:59;13.30;99.90
18894;DHT22;9579;49.488;8.226;2024-02-15T08:34:20;14.70;99.90
18894;DHT22;9579;49.488;8.226;2024-02-15T08:43:48;14.50;99.90
18894;DHT22;9579;49.488;8.226;2024-02-15T08:46:35;14.80;99.90
18894;DHT22;9579;49.488;8.226;2024-02-15T08:49:22;16.60;99.90
18894;DHT22;9579;49.488;8.226;2024-02-15T08:52:10;15.40;99.90
18894;DHT22;9579;49.488;8.226;2024-02-15T08:54:57;15.60;99.90
18894;DHT22;9579;49.488;8.226;2024-02-15T08:57:45;15.70;99.90
18894;DHT22;9579;49.488;8.226;2024-02-15T09:00:33;15.80;99.90
18894;DHT22;9579;49.488;8.226;2024-02-15T09:03:20;15.80;99.90
18894;DHT22;9579;49.488;8.226;2024-02-15T09:06:07;16.10;99.90
18894;DHT22;9579;49.488;8.226;2024-02-15T09:08:54;15.80;99.90
18894;DHT22;9579;49.488;8.226;2024-02-15T09:11:42;15.70;99.90
18894;DHT22;9579;49.488;8.226;2024-02-15T09:14:30;15.70;99.90
18894;DHT22;9579;49.488;8.226;2024-02-15T09:17:18;15.70;99.90
18894;DHT22;9579;49.488;8.226;2024-02-15T09:20:07;15.60;99.90
18894;DHT22;9579;49.488;8.226;2024-02-15T09:22:55;15.70;99.90
18894;DHT22;9579;49.488;8.226;2024-02-15T09:25:42;15.60;99.90
18894;DHT22;9579;49.488;8.226;2024-02-15T09:28:29;15.50;99.90
18894;DHT22;9579;49.488;8.226;2024-02-15T09:31:17;15.60;99.90
18894;DHT22;9579;49.488;8.226;2024-02-15T09:34:05;15.50;99.90
18894;DHT22;9579;49.488;8.226;2024-02-15T09:36:52;15.70;99.90
18894;DHT22;9579;49.488;8.226;2024-02-15T09:39:39;16.50;99.90
18894;DHT22;9579;49.488;8.226;2024-02-15T09:42:26;16.60;99.90
18894;DHT22;9579;49.488;8.226;2024-02-15T09:45:14;15.70;99.90
18894;DHT22;9579;49.488;8.226;2024-02-15T09:48:05;15.70;99.90
18894;DHT22;9579;49.488;8.226;2024-02-15T09:50:56;15.80;99.90
18894;DHT22;9579;49.488;8.226;2024-02-15T09:53:43;15.80;99.90
18894;DHT22;9579;49.488;8.226;2024-02-15T09:56:32;15.80;99.90
18894;DHT22;9579;49.488;8.226;2024-02-15T09:59:21;15.80;99.90
18894;DHT22;9579;49.488;8.226;2024-02-15T10:02:09;15.90;99.90
18894;DHT22;9579;49.488;8.226;2024-02-15T10:04:59;16.90;99.90
18894;DHT22;9579;49.488;8.226;2024-02-15T10:07:47;16.00;99.90
18894;DHT22;9579;49.488;8.226;2024-02-15T10:10:34;16.70;99.90
18894;DHT22;9579;49.488;8.226;2024-02-15T10:13:23;16.00;99.90
18894;DHT22;9579;49.488;8.226;2024-02-15T10:16:17;16.00;99.90
18894;DHT22;9579;49.488;8.226;2024-02-15T10:19:09;16.10;99.90
18894;DHT22;9579;49.488;8.226;2024-02-15T10:22:05;16.10;99.90
18894;DHT22;9579;49.488;8.226;2024-02-15T10:25:10;16.10;99.90
18894;DHT22;9579;49.488;8.226;2024-02-15T10:28:01;16.10;99.90
18894;DHT22;9579;49.488;8.226;2024-02-15T10:30:49;16.10;99.90
18894;DHT22;9579;49.488;8.226;2024-02-15T10:33:38;16.20;99.90
18894;DHT22;9579;49.488;8.226;2024-02-15T10:36:25;16.10;99.90
18894;DHT22;9579;49.488;8.226;2024-02-15T10:39:13;16.30;99.90
18894;DHT22;9579;49.488;8.226;2024-02-15T10:42:07;16.30;99.90
18894;DHT22;9579;49.488;8.226;2024-02-15T10:44:57;16.30;99.90
18894;DHT22;9579;49.488;8.226;2024-02-15T10:47:44;16.40;99.90
18894;DHT22;9579;49.488;8.226;2024-02-15T10:50:33;16.50;99.90
18894;DHT22;9579;49.488;8.226;2024-02-15T10:53:27;16.60;99.90
18894;DHT22;9579;49.488;8.226;2024-02-15T10:56:17;17.00;99.90
18894;DHT22;9579;49.488;8.226;2024-02-15T10:59:10;17.10;99.90
18894;DHT22;9579;49.488;8.226;2024-02-15T11:02:02;17.30;99.90
18894;DHT22;9579;49.488;8.226;2024-02-15T11:04:54;17.50;99.90
18894;DHT22;9579;49.488;8.226;2024-02-15T11:07:42;16.60;99.90
18894;DHT22;9579;49.488;8.226;2024-02-15T11:10:30;16.70;99.90
18894;DHT22;9579;49.488;8.226;2024-02-15T11:13:17;17.10;99.90
18894;DHT22;9579;49.488;8.226;2024-02-15T11:16:06;17.00;99.90
18894;DHT22;9579;49.488;8.226;2024-02-15T11:18:53;16.80;99.90
18894;DHT22;9579;49.488;8.226;2024-02-15T11:21:58;17.20;99.90
18894;DHT22;9579;49.488;8.226;2024-02-15T11:24:50;17.00;99.90
18894;DHT22;9579;49.488;8.226;2024-02-15T11:27:38;17.10;99.90
18894;DHT22;9579;49.488;8.226;2024-02-15T11:30:31;17.20;99.90
18894;DHT22;9579;49.488;8.226;2024-02-15T11:33:29;17.70;99.90
18894;DHT22;9579;49.488;8.226;2024-02-15T11:36:16;17.70;99.90
18894;DHT22;9579;49.488;8.226;2024-02-15T11:39:39;17.50;99.90
18894;DHT22;9579;49.488;8.226;2024-02-15T11:42:28;17.50;99.90
18894;DHT22;9579;49.488;8.226;2024-02-15T11:45:15;17.60;99.90
18894;DHT22;9579;49.488;8.226;2024-02-15T11:48:08;18.20;99.90
18894;DHT22;9579;49.488;8.226;2024-02-15T11:50:57;17.50;99.90
18894;DHT22;9579;49.488;8.226;2024-02-15T11:53:44;17.20;99.90
18894;DHT22;9579;49.488;8.226;2024-02-15T11:59:41;17.60;99.90
18894;DHT22;9579;49.488;8.226;2024-02-15T12:02:39;17.60;99.90
18894;DHT22;9579;49.488;8.226;2024-02-15T12:05:43;17.60;99.90
18894;DHT22;9579;49.488;8.226;2024-02-15T12:08:51;17.80;99.90
18894;DHT22;9579;49.488;8.226;2024-02-15T12:11:57;17.80;99.90
18894;DHT22;9579;49.488;8.226;2024-02-15T12:15:02;17.80;99.90
18894;DHT22;9579;49.488;8.226;2024-02-15T12:18:14;17.80;99.90
18894;DHT22;9579;49.488;8.226;2024-02-15T12:21:21;17.90;99.90
18894;DHT22;9579;49.488;8.226;2024-02-15T12:24:10;18.10;99.90
18894;DHT22;9579;49.488;8.226;2024-02-15T12:27:00;18.00;99.90
18894;DHT22;9579;49.488;8.226;2024-02-15T12:29:56;18.10;99.90
18894;DHT22;9579;49.488;8.226;2024-02-15T12:32:43;18.10;99.90
18894;DHT22;9579;49.488;8.226;2024-02-15T12:35:30;18.10;99.90
18894;DHT22;9579;49.488;8.226;2024-02-15T12:38:17;18.10;99.90
18894;DHT22;9579;49.488;8.226;2024-02-15T12:41:18;17.90;99.90
18894;DHT22;9579;49.488;8.226;2024-02-15T12:44:05;17.90;99.90
18894;DHT22;9579;49.488;8.226;2024-02-15T12:46:54;17.80;99.90
18894;DHT22;9579;49.488;8.226;2024-02-15T12:49:43;18.00;99.90
18894;DHT22;9579;49.488;8.226;2024-02-15T12:52:34;17.90;99.90
18894;DHT22;9579;49.488;8.226;2024-02-15T12:55:22;17.90;99.90
18894;DHT22;9579;49.488;8.226;2024-02-15T12:58:14;17.80;99.90
18894;DHT22;9579;49.488;8.226;2024-02-15T13:01:02;17.90;99.90
18894;DHT22;9579;49.488;8.226;2024-02-15T13:03:50;18.00;99.90
18894;DHT22;9579;49.488;8.226;2024-02-15T13:06:37;18.50;99.90
18894;DHT22;9579;49.488;8.226;2024-02-15T13:09:24;18.00;99.90
18894;DHT22;9579;49.488;8.226;2024-02-15T13:12:11;18.00;99.90
18894;DHT22;9579;49.488;8.226;2024-02-15T13:14:59;18.00;99.90
18894;DHT22;9579;49.488;8.226;2024-02-15T13:17:47;18.70;99.90
18894;DHT22;9579;49.488;8.226;2024-02-15T13:20:36;18.10;99.90
18894;DHT22;9579;49.488;8.226;2024-02-15T13:23:23;18.00;99.90
18894;DHT22;9579;49.488;8.226;2024-02-15T13:26:11;18.00;99.90
18894;DHT22;9579;49.488;8.226;2024-02-15T13:28:59;18.10;99.90
18894;DHT22;9579;49.488;8.226;2024-02-15T13:31:47;18.20;99.90
18894;DHT22;9579;49.488;8.226;2024-02-15T13:34:36;18.20;99.90
18894;DHT22;9579;49.488;8.226;2024-02-15T13:37:23;18.20;99.90
18894;DHT22;9579;49.488;8.226;2024-02-15T13:40:11;18.30;99.90
18894;DHT22;9579;49.488;8.226;2024-02-15T13:43:01;18.40;99.90
18894;DHT22;9579;49.488;8.226;2024-02-15T13:45:50;18.60;99.90
18894;DHT22;9579;49.488;8.226;2024-02-15T13:48:39;18.30;99.90
18894;DHT22;9579;49.488;8.226;2024-02-15T13:51:26;18.40;99.90
18894;DHT22;9579;49.488;8.226;2024-02-15T13:54:13;18.50;99.90
18894;DHT22;9579;49.488;8.226;2024-02-15T13:57:00;18.70;99.90
18894;DHT22;9579;49.488;8.226;2024-02-15T13:59:48;18.40;99.90
18894;DHT22;9579;49.488;8.226;2024-02-15T14:02:35;18.60;99.90
18894;DHT22;9579;49.488;8.226;2024-02-15T14:05:24;18.40;99.90
18894;DHT22;9579;49.488;8.226;2024-02-15T14:08:13;18.20;99.90
18894;DHT22;9579;49.488;8.226;2024-02-15T14:11:01;18.20;99.90
18894;DHT22;9579;49.488;8.226;2024-02-15T14:13:48;18.70;99.90
18894;DHT22;9579;49.488;8.226;2024-02-15T14:16:39;18.30;99.90
18894;DHT22;9579;49.488;8.226;2024-02-15T14:19:26;18.20;99.90
18894;DHT22;9579;49.488;8.226;2024-02-15T14:22:14;18.20;99.90
18894;DHT22;9579;49.488;8.226;2024-02-15T14:25:02;18.20;99.90
18894;DHT22;9579;49.488;8.226;2024-02-15T14:27:51;18.20;99.90
18894;DHT22;9579;49.488;8.226;2024-02-15T14:30:39;18.10;99.90
18894;DHT22;9579;49.488;8.226;2024-02-15T14:33:44;18.20;99.90
18894;DHT22;9579;49.488;8.226;2024-02-15T14:36:32;18.20;99.90
18894;DHT22;9579;49.488;8.226;2024-02-15T14:39:23;18.20;99.90
18894;DHT22;9579;49.488;8.226;2024-02-15T14:42:10;18.20;99.90
18894;DHT22;9579;49.488;8.226;2024-02-15T14:44:58;18.20;99.90
18894;DHT22;9579;49.488;8.226;2024-02-15T14:47:45;18.20;99.90
18894;DHT22;9579;49.488;8.226;2024-02-15T14:50:32;18.20;99.90
18894;DHT22;9579;49.488;8.226;2024-02-15T14:53:20;18.10;99.90
18894;DHT22;9579;49.488;8.226;2024-02-15T14:56:09;18.40;99.90
18894;DHT22;9579;49.488;8.226;2024-02-15T14:58:56;18.20;99.90
18894;DHT22;9579;49.488;8.226;2024-02-15T15:01:43;18.20;99.90
18894;DHT22;9579;49.488;8.226;2024-02-15T15:04:30;18.20;99.90
18894;DHT22;9579;49.488;8.226;2024-02-15T15:07:33;18.10;99.90
18894;DHT22;9579;49.488;8.226;2024-02-15T15:10:37;18.00;99.90
18894;DHT22;9579;49.488;8.226;2024-02-15T15:13:40;17.90;99.90
18894;DHT22;9579;49.488;8.226;2024-02-15T15:16:27;17.80;99.90
18894;DHT22;9579;49.488;8.226;2024-02-15T15:19:15;17.80;99.90
18894;DHT22;9579;49.488;8.226;2024-02-15T15:22:03;17.70;99.90
18894;DHT22;9579;49.488;8.226;2024-02-15T15:24:51;17.60;99.90
18894;DHT22;9579;49.488;8.226;2024-02-15T15:27:38;17.50;99.90
18894;DHT22;9579;49.488;8.226;2024-02-15T15:30:26;17.40;99.90
18894;DHT22;9579;49.488;8.226;2024-02-15T15:33:13;17.50;99.90
18894;DHT22;9579;49.488;8.226;2024-02-15T15:36:00;17.50;99.90
18894;DHT22;9579;49.488;8.226;2024-02-15T15:38:49;17.40;99.90
18894;DHT22;9579;49.488;8.226;2024-02-15T15:41:36;17.40;99.90
18894;DHT22;9579;49.488;8.226;2024-02-15T15:44:26;17.40;99.90
18894;DHT22;9579;49.488;8.226;2024-02-15T15:47:14;17.30;99.90
18894;DHT22;9579;49.488;8.226;2024-02-15T15:50:01;17.20;99.90
18894;DHT22;9579;49.488;8.226;2024-02-15T15:52:49;17.20;99.90
18894;DHT22;9579;49.488;8.226;2024-02-15T15:55:36;17.20;99.90
18894;DHT22;9579;49.488;8.226;2024-02-15T15:58:23;17.00;99.90
18894;DHT22;9579;49.488;8.226;2024-02-15T16:01:10;17.00;99.90
18894;DHT22;9579;49.488;8.226;2024-02-15T16:03:59;17.00;99.90
18894;DHT22;9579;49.488;8.226;2024-02-15T16:06:46;17.00;99.90
18894;DHT22;9579;49.488;8.226;2024-02-15T16:09:33;16.90;99.90
18894;DHT22;9579;49.488;8.226;2024-02-15T16:12:20;17.00;99.90
18894;DHT22;9579;49.488;8.226;2024-02-15T16:15:08;17.10;99.90
18894;DHT22;9579;49.488;8.226;2024-02-15T16:17:58;16.60;99.90
18894;DHT22;9579;49.488;8.226;2024-02-15T16:20:47;16.60;99.90
18894;DHT22;9579;49.488;8.226;2024-02-15T16:23:34;16.50;99.90
18894;DHT22;9579;49.488;8.226;2024-02-15T16:26:21;16.50;99.90
18894;DHT22;9579;49.488;8.226;2024-02-15T16:29:09;16.40;99.90
18894;DHT22;9579;49.488;8.226;2024-02-15T16:31:56;17.10;99.90
18894;DHT22;9579;49.488;8.226;2024-02-15T16:34:44;16.30;99.90
18894;DHT22;9579;49.488;8.226;2024-02-15T16:37:32;16.70;99.90
18894;DHT22;9579;49.488;8.226;2024-02-15T16:40:19;16.20;99.90
18894;DHT22;9579;49.488;8.226;2024-02-15T16:43:08;16.10;99.90
18894;DHT22;9579;49.488;8.226;2024-02-15T16:45:55;16.00;99.90
18894;DHT22;9579;49.488;8.226;2024-02-15T16:48:42;16.00;99.90
18894;DHT22;9579;49.488;8.226;2024-02-15T16:51:29;15.90;99.90
18894;DHT22;9579;49.488;8.226;2024-02-15T16:54:19;15.80;99.90
18894;DHT22;9579;49.488;8.226;2024-02-15T16:57:06;15.70;99.90
18894;DHT22;9579;49.488;8.226;2024-02-15T16:59:53;15.70;99.90
18894;DHT22;9579;49.488;8.226;2024-02-15T17:02:41;15.80;99.90
18894;DHT22;9579;49.488;8.226;2024-02-15T17:05:28;15.80;99.90
18894;DHT22;9579;49.488;8.226;2024-02-15T17:08:15;15.70;99.90
18894;DHT22;9579;49.488;8.226;2024-02-15T17:11:04;15.60;99.90
18894;DHT22;9579;49.488;8.226;2024-02-15T17:13:51;15.50;99.90
18894;DHT22;9579;49.488;8.226;2024-02-15T17:16:39;15.50;99.90
18894;DHT22;9579;49.488;8.226;2024-02-15T17:19:28;15.50;99.90
18894;DHT22;9579;49.488;8.226;2024-02-15T17:22:14;15.40;99.90
18894;DHT22;9579;49.488;8.226;2024-02-15T17:25:02;15.40;99.90
18894;DHT22;9579;49.488;8.226;2024-02-15T17:27:52;15.30;99.90
18894;DHT22;9579;49.488;8.226;2024-02-15T17:30:40;15.30;99.90
18894;DHT22;9579;49.488;8.226;2024-02-15T17:33:29;15.20;99.90
18894;DHT22;9579;49.488;8.226;2024-02-15T17:36:16;15.30;99.90
18894;DHT22;9579;49.488;8.226;2024-02-15T17:39:03;16.30;99.90
18894;DHT22;9579;49.488;8.226;2024-02-15T17:41:51;15.20;99.90
18894;DHT22;9579;49.488;8.226;2024-02-15T17:44:40;15.10;99.90
18894;DHT22;9579;49.488;8.226;2024-02-15T17:47:30;15.00;99.90
18894;DHT22;9579;49.488;8.226;2024-02-15T17:50:17;15.00;99.90
18894;DHT22;9579;49.488;8.226;2024-02-15T17:53:07;15.10;99.90
18894;DHT22;9579;49.488;8.226;2024-02-15T17:55:55;15.00;99.90
18894;DHT22;9579;49.488;8.226;2024-02-15T17:58:45;16.20;99.90
18894;DHT22;9579;49.488;8.226;2024-02-15T18:01:34;14.80;99.90
18894;DHT22;9579;49.488;8.226;2024-02-15T18:04:23;14.70;99.90
18894;DHT22;9579;49.488;8.226;2024-02-15T18:07:10;14.80;99.90
18894;DHT22;9579;49.488;8.226;2024-02-15T18:09:57;14.70;99.90
18894;DHT22;9579;49.488;8.226;2024-02-15T18:12:48;15.00;99.90
18894;DHT22;9579;49.488;8.226;2024-02-15T18:15:35;14.80;99.90
18894;DHT22;9579;49.488;8.226;2024-02-15T18:18:31;16.20;99.90
18894;DHT22;9579;49.488;8.226;2024-02-15T18:21:18;14.80;99.90
18894;DHT22;9579;49.488;8.226;2024-02-15T18:24:06;15.80;99.90
18894;DHT22;9579;49.488;8.226;2024-02-15T18:26:53;14.70;99.90
18894;DHT22;9579;49.488;8.226;2024-02-15T18:29:40;15.10;99.90
18894;DHT22;9579;49.488;8.226;2024-02-15T18:32:28;14.70;99.90
18894;DHT22;9579;49.488;8.226;2024-02-15T18:35:17;14.70;99.90
18894;DHT22;9579;49.488;8.226;2024-02-15T18:38:03;15.10;99.90
18894;DHT22;9579;49.488;8.226;2024-02-15T18:40:51;15.10;99.90
18894;DHT22;9579;49.488;8.226;2024-02-15T18:43:38;14.40;99.90
18894;DHT22;9579;49.488;8.226;2024-02-15T18:46:25;14.50;99.90
18894;DHT22;9579;49.488;8.226;2024-02-15T18:49:12;14.50;99.90
18894;DHT22;9579;49.488;8.226;2024-02-15T18:52:11;14.50;99.90
18894;DHT22;9579;49.488;8.226;2024-02-15T18:54:59;15.80;99.90
18894;DHT22;9579;49.488;8.226;2024-02-15T18:57:46;14.50;99.90
18894;DHT22;9579;49.488;8.226;2024-02-15T19:03:08;14.10;99.90
18894;DHT22;9579;49.488;8.226;2024-02-15T19:18:07;13.00;99.90
18894;DHT22;9579;49.488;8.226;2024-02-15T20:00:36;13.50;99.90
18894;DHT22;9579;49.488;8.226;2024-02-15T20:03:25;13.60;99.90
18894;DHT22;9579;49.488;8.226;2024-02-15T20:06:14;13.60;99.90
18894;DHT22;9579;49.488;8.226;2024-02-15T20:09:01;13.50;99.90
18894;DHT22;9579;49.488;8.226;2024-02-15T20:28:41;13.60;99.90
18894;DHT22;9579;49.488;8.226;2024-02-15T20:31:32;13.70;99.90
18894;DHT22;9579;49.488;8.226;2024-02-15T20:34:20;12.60;99.90
18894;DHT22;9579;49.488;8.226;2024-02-15T20:37:10;13.70;99.90
18894;DHT22;9579;49.488;8.226;2024-02-15T20:39:59;14.00;99.90
18894;DHT22;9579;49.488;8.226;2024-02-15T20:43:09;13.60;99.90
18894;DHT22;9579;49.488;8.226;2024-02-15T20:46:00;13.60;99.90
18894;DHT22;9579;49.488;8.226;2024-02-15T20:48:48;14.90;99.90
18894;DHT22;9579;49.488;8.226;2024-02-15T20:51:36;14.70;99.90
18894;DHT22;9579;49.488;8.226;2024-02-15T20:54:23;15.20;99.90
18894;DHT22;9579;49.488;8.226;2024-02-15T20:57:10;13.70;99.90